Gilbert Plains, Canada
Current Conditions -  °F | °C
As of 2:37 AM on Monday 22 Dec 2014 (Local Time) from CYDN Reporting Station
Light Snow Light Snow  
Wind Chill: 18°   Ceiling: 300
Heat Index: 25°   Visibility: 1mi
Dew Point: 23°   Wind: 6mph
Humidity: 93%   Direction: 100°E
Pressure: 29.57"   Gusts: NA
Location:  51.13°N, 100.48°W
Report Text: CYDN 220837Z AUTO 10005KT 1SM -SN OVC003 M04/M05 A2957 RMK SLP032
Loading
Personal Weather Stations






























Interactive Weather Map New forecast layout! Learn more

10-Day Weather Forecast

Advertisements
Track Severe Weather on mobile